Time;durP1;ratioP1;P1;durP2;ratioP2;P2;SDS_P1;SDS_P2;PMS_P1;PMS_P2;Temp;Humidity;BMP_temperature;BMP_pressure;BME280_temperature;BME280_humidity;BME280_pressure;Samples;Min_cycle;Max_cycle;Signal;HPM_P1;HPM_P2
2021/09/28 00:01:13;;;;;;;0.10;0.10;;;;;;;13.20;100.00;102023.16;10489404;28;20029;-67
2021/09/28 00:06:13;;;;;;;0.10;0.10;;;;;;;13.12;100.00;102036.44;10489533;28;20024;-67
2021/09/28 00:11:14;;;;;;;0.10;0.10;;;;;;;13.04;100.00;102047.88;10489582;28;20033;-67
2021/09/28 00:16:14;;;;;;;0.10;0.10;;;;;;;12.93;100.00;102053.38;10489314;28;20043;-67
2021/09/28 00:21:14;;;;;;;0.10;0.10;;;;;;;12.85;100.00;102050.59;10489263;28;20385;-67
2021/09/28 00:26:15;;;;;;;0.10;0.10;;;;;;;12.75;100.00;102055.13;10471279;28;20044;-67
2021/09/28 00:31:15;;;;;;;0.10;0.10;;;;;;;12.68;100.00;102069.06;10490152;28;20093;-67
2021/09/28 00:36:15;;;;;;;0.10;0.10;;;;;;;12.58;100.00;102065.53;10489432;28;20028;-67
2021/09/28 00:41:16;;;;;;;0.10;0.10;;;;;;;12.56;100.00;102070.19;10489261;28;20113;-67
2021/09/28 00:46:16;;;;;;;0.10;0.10;;;;;;;12.52;100.00;102081.31;10497179;28;20024;-67
2021/09/28 00:51:17;;;;;;;0.10;0.10;;;;;;;12.47;100.00;102092.41;10496357;28;20396;-67
2021/09/28 00:56:19;;;;;;;0.10;0.10;;;;;;;12.42;100.00;102086.63;10478522;28;20036;-69
2021/09/28 01:01:20;;;;;;;0.10;0.10;;;;;;;12.38;100.00;102094.09;10495890;28;20032;-67
2021/09/28 01:06:20;;;;;;;0.10;0.10;;;;;;;12.36;100.00;102103.22;10495717;28;20040;-67
2021/09/28 01:11:21;;;;;;;0.10;0.10;;;;;;;12.34;100.00;102099.88;10495942;28;20082;-66
2021/09/28 01:16:24;;;;;;;0.10;0.10;;;;;;;12.29;100.00;102094.09;10478278;28;20251;-67
2021/09/28 01:21:24;;;;;;;0.10;0.10;;;;;;;12.27;100.00;102104.06;10496454;28;20050;-67
2021/09/28 01:26:24;;;;;;;0.07;0.07;;;;;;;12.23;100.00;102115.03;10495783;28;20057;-67
2021/09/28 01:31:25;;;;;;;0.10;0.10;;;;;;;12.20;100.00;102118.00;10495646;28;20461;-67
2021/09/28 01:36:25;;;;;;;0.10;0.10;;;;;;;12.17;100.00;102125.44;10494969;28;20020;-67
2021/09/28 01:41:25;;;;;;;0.10;0.10;;;;;;;12.17;100.00;102117.44;10494252;28;20293;-67
2021/09/28 01:46:26;;;;;;;0.10;0.10;;;;;;;12.23;100.00;102119.53;10493944;28;20082;-68
2021/09/28 01:51:26;;;;;;;0.10;0.10;;;;;;;12.24;100.00;102126.56;10494153;28;20474;-67
2021/09/28 01:56:27;;;;;;;0.10;0.10;;;;;;;12.25;100.00;102128.28;10493007;28;20016;-67
2021/09/28 02:01:27;;;;;;;0.10;0.10;;;;;;;12.24;100.00;102123.88;10493763;28;20427;-67
2021/09/28 02:06:36;;;;;;;0.10;0.10;;;;;;;12.19;100.00;102123.47;10493060;28;20393;-67
2021/09/28 02:11:37;;;;;;;0.10;0.10;;;;;;;12.16;100.00;102135.28;10493424;28;20460;-67
2021/09/28 02:16:38;;;;;;;0.05;0.05;;;;;;;12.12;100.00;102135.69;10493184;28;20024;-66
2021/09/28 02:21:38;;;;;;;0.10;0.10;;;;;;;12.05;100.00;102132.72;10492874;28;20338;-66
2021/09/28 02:26:38;;;;;;;0.10;0.10;;;;;;;11.99;100.00;102141.28;10492497;28;20038;-66
2021/09/28 02:31:39;;;;;;;0.10;0.10;;;;;;;11.92;100.00;102138.28;10492418;28;20450;-66
2021/09/28 02:36:39;;;;;;;0.10;0.10;;;;;;;11.90;100.00;102144.78;10458253;28;20476;-66
2021/09/28 02:41:40;;;;;;;0.10;0.10;;;;;;;11.85;100.00;102144.31;10492888;28;20020;-66
2021/09/28 02:46:40;;;;;;;0.10;0.10;;;;;;;11.77;100.00;102152.97;10492674;28;20029;-66
2021/09/28 02:51:41;;;;;;;0.10;0.10;;;;;;;11.76;100.00;102160.13;10492388;28;20021;-66
2021/09/28 02:56:41;;;;;;;0.03;0.03;;;;;;;11.70;100.00;102160.69;10491733;28;20341;-66
2021/09/28 03:01:41;;;;;;;0.10;0.10;;;;;;;11.64;100.00;102163.88;10491283;28;20031;-66
2021/09/28 03:06:42;;;;;;;0.10;0.10;;;;;;;11.59;100.00;102162.59;10490522;28;20290;-67
2021/09/28 03:11:42;;;;;;;0.10;0.10;;;;;;;11.52;100.00;102171.13;10491327;28;20271;-66
2021/09/28 03:16:43;;;;;;;0.00;0.00;;;;;;;11.45;100.00;102172.63;10490841;28;20270;-67
2021/09/28 03:21:43;;;;;;;0.10;0.10;;;;;;;11.38;100.00;102173.31;10491491;28;20315;-67
2021/09/28 03:26:44;;;;;;;0.10;0.10;;;;;;;11.30;100.00;102172.13;10490594;28;20086;-66
2021/09/28 03:31:45;;;;;;;0.10;0.10;;;;;;;11.24;100.00;102169.97;10490543;28;20165;-66
2021/09/28 03:36:45;;;;;;;0.00;0.00;;;;;;;11.19;100.00;102177.50;10490536;28;20020;-66
2021/09/28 03:41:45;;;;;;;0.10;0.10;;;;;;;11.14;100.00;102182.41;10490572;28;20082;-67
2021/09/28 03:46:45;;;;;;;0.10;0.10;;;;;;;11.08;100.00;102188.25;10489919;28;20064;-66
2021/09/28 03:51:46;;;;;;;0.10;0.10;;;;;;;11.03;100.00;102195.81;10490030;28;20021;-66
2021/09/28 03:56:46;;;;;;;0.10;0.10;;;;;;;10.98;100.00;102203.34;10489680;28;20028;-66
2021/09/28 04:01:46;;;;;;;0.05;0.05;;;;;;;10.94;100.00;102215.22;10490094;28;20267;-66
2021/09/28 04:06:47;;;;;;;0.00;0.00;;;;;;;10.96;100.00;102214.13;10490058;28;20307;-66
2021/09/28 04:11:47;;;;;;;0.10;0.10;;;;;;;11.06;100.00;102223.06;10490222;28;20021;-66
2021/09/28 04:16:47;;;;;;;0.10;0.10;;;;;;;11.18;100.00;102220.34;10490856;28;20020;-67
2021/09/28 04:21:47;;;;;;;0.10;0.10;;;;;;;11.24;100.00;102222.47;10497874;28;20024;-66
2021/09/28 04:26:48;;;;;;;0.10;0.10;;;;;;;11.23;100.00;102234.97;10497360;28;20029;-67
2021/09/28 04:31:48;;;;;;;0.10;0.10;;;;;;;11.17;100.00;102235.50;10497767;28;20031;-67
2021/09/28 04:36:48;;;;;;;0.10;0.10;;;;;;;11.05;100.00;102244.50;10497172;28;20254;-66
2021/09/28 04:41:49;;;;;;;0.10;0.10;;;;;;;10.98;100.00;102256.66;10497050;28;20036;-66
2021/09/28 04:46:49;;;;;;;0.10;0.10;;;;;;;10.87;100.00;102261.03;10496968;28;20031;-66
2021/09/28 04:51:49;;;;;;;0.10;0.10;;;;;;;10.80;100.00;102267.84;10497018;28;20047;-66
2021/09/28 04:56:50;;;;;;;0.10;0.10;;;;;;;10.78;100.00;102275.13;10496533;28;20020;-66
2021/09/28 05:01:50;;;;;;;0.10;0.10;;;;;;;10.79;100.00;102275.97;10496560;28;20035;-66
2021/09/28 05:06:51;;;;;;;0.10;0.10;;;;;;;10.80;100.00;102283.84;10496446;28;20028;-66
2021/09/28 05:11:51;;;;;;;0.00;0.00;;;;;;;10.77;100.00;102283.25;10496123;28;20027;-66
2021/09/28 05:16:52;;;;;;;0.10;0.10;;;;;;;10.73;100.00;102287.97;10496203;28;20027;-66
2021/09/28 05:21:53;;;;;;;0.10;0.10;;;;;;;10.71;100.00;102291.75;10496378;28;20367;-66
2021/09/28 05:26:53;;;;;;;0.05;0.05;;;;;;;10.67;100.00;102293.81;10477974;28;20024;-66
2021/09/28 05:31:53;;;;;;;0.10;0.10;;;;;;;10.69;100.00;102305.19;10494939;28;20360;-66
2021/09/28 05:36:55;;;;;;;0.10;0.10;;;;;;;10.77;100.00;102307.25;10495300;28;20017;-66
2021/09/28 05:41:55;;;;;;;0.10;0.10;;;;;;;10.73;100.00;102317.28;10495251;28;20522;-67
2021/09/28 05:46:56;;;;;;;0.10;0.10;;;;;;;10.78;100.00;102319.59;10494374;28;20119;-66
2021/09/28 05:51:57;;;;;;;0.10;0.10;;;;;;;11.04;100.00;102328.13;10494958;28;20021;-67
2021/09/28 05:56:57;;;;;;;0.10;0.10;;;;;;;11.23;100.00;102333.66;10493836;28;20031;-66
2021/09/28 06:01:57;;;;;;;0.10;0.10;;;;;;;11.68;100.00;102333.44;10494212;28;20036;-66
2021/09/28 06:06:57;;;;;;;0.00;0.00;;;;;;;12.52;98.61;102346.75;10493493;28;20028;-67
2021/09/28 06:11:58;;;;;;;0.10;0.10;;;;;;;12.83;95.21;102341.38;10493479;28;20020;-66
2021/09/28 06:16:59;;;;;;;0.10;0.10;;;;;;;13.04;94.08;102343.94;10492892;28;20040;-66
2021/09/28 06:22:00;;;;;;;0.10;0.10;;;;;;;13.26;92.74;102348.19;10493656;28;20028;-66
2021/09/28 06:27:05;;;;;;;0.10;0.10;;;;;;;12.96;92.35;102354.47;10492651;28;20427;-66
2021/09/28 06:32:06;;;;;;;0.10;0.10;;;;;;;12.65;92.41;102358.06;10474402;28;20258;-66
2021/09/28 06:37:07;;;;;;;0.10;0.10;;;;;;;13.34;94.18;102356.38;10492214;28;20058;-67
2021/09/28 06:42:07;;;;;;;0.10;0.10;;;;;;;15.36;88.25;102365.75;10491869;28;20028;-67
2021/09/28 06:47:08;;;;;;;0.00;0.00;;;;;;;16.71;82.18;102365.31;10474105;28;20067;-67
2021/09/28 06:52:09;;;;;;;0.10;0.10;;;;;;;16.68;80.58;102371.03;10491801;28;20489;-67
2021/09/28 06:57:09;;;;;;;0.10;0.10;;;;;;;16.49;81.56;102366.72;10491200;28;20111;-67
2021/09/28 07:02:09;;;;;;;0.00;0.00;;;;;;;18.25;78.56;102368.38;10473490;28;20560;-67
2021/09/28 07:07:10;;;;;;;0.10;0.10;;;;;;;19.54;72.21;102361.66;10490567;28;20286;-66
2021/09/28 07:12:10;;;;;;;0.10;0.10;;;;;;;20.49;70.03;102366.50;10473363;28;20365;-65
2021/09/28 07:17:10;;;;;;;0.10;0.10;;;;;;;20.53;68.09;102365.94;10490784;28;20339;-66
2021/09/28 07:22:11;;;;;;;0.10;0.10;;;;;;;19.79;64.57;102371.28;10472837;28;20612;-66
2021/09/28 07:27:11;;;;;;;0.00;0.00;;;;;;;19.71;69.97;102373.22;10472668;28;20056;-66
2021/09/28 07:32:13;;;;;;;0.00;0.00;;;;;;;20.82;65.34;102375.06;10490043;28;20321;-66
2021/09/28 07:37:14;;;;;;;0.10;0.10;;;;;;;21.51;62.71;102376.47;10490462;28;20017;-66
2021/09/28 07:42:14;;;;;;;0.10;0.10;;;;;;;21.65;59.52;102386.41;10491105;28;20025;-66
2021/09/28 07:47:14;;;;;;;0.10;0.10;;;;;;;21.93;60.12;102375.56;10471798;28;20482;-66
2021/09/28 07:52:15;;;;;;;0.10;0.10;;;;;;;22.20;60.83;102381.25;10487847;28;20104;-66
2021/09/28 07:57:15;;;;;;;0.10;0.10;;;;;;;22.37;58.68;102388.88;10489804;28;20020;-66
2021/09/28 08:02:17;;;;;;;0.10;0.10;;;;;;;22.60;59.00;102379.56;10490276;28;20051;-66
2021/09/28 08:07:18;;;;;;;0.10;0.10;;;;;;;22.76;58.52;102381.97;10489959;28;20040;-66
2021/09/28 08:12:18;;;;;;;0.10;0.10;;;;;;;22.86;57.60;102383.44;10490161;28;20048;-67
2021/09/28 08:17:19;;;;;;;0.10;0.10;;;;;;;22.92;57.71;102386.22;10471923;28;20032;-66
2021/09/28 08:22:19;;;;;;;0.00;0.00;;;;;;;22.83;57.06;102390.97;10490827;28;20166;-67
2021/09/28 08:32:38;;;;;;;0.10;0.10;;;;;;;22.88;57.10;102389.53;10490044;28;20024;-67
2021/09/28 08:37:38;;;;;;;0.00;0.00;;;;;;;22.87;58.20;102388.69;10489860;28;20466;-67
2021/09/28 08:42:39;;;;;;;0.10;0.10;;;;;;;22.84;57.75;102386.38;10489533;28;20031;-67
2021/09/28 08:47:41;;;;;;;0.10;0.10;;;;;;;22.80;59.10;102399.50;10489438;28;20473;-67
2021/09/28 08:52:43;;;;;;;;;;;;;;;22.75;60.85;102395.75;10489938;28;20031;-67
2021/09/28 08:57:43;;;;;;;0.00;0.00;;;;;;;22.41;58.62;102402.88;10473370;28;19912;-66
2021/09/28 09:02:46;;;;;;;0.10;0.10;;;;;;;22.13;61.45;102398.25;10490056;28;20020;-67
2021/09/28 09:07:57;;;;;;;0.00;0.00;;;;;;;21.88;60.12;102399.75;10496747;28;20472;-66
2021/09/28 09:12:58;;;;;;;0.10;0.10;;;;;;;21.74;61.01;102396.09;10496245;28;20046;-66
2021/09/28 09:18:05;;;;;;;0.00;0.00;;;;;;;21.63;62.53;102402.88;10496265;28;20027;-66
2021/09/28 09:23:28;;;;;;;0.00;0.00;;;;;;;21.31;61.06;102404.19;10495599;28;20505;-67
2021/09/28 09:28:32;;;;;;;0.00;0.00;;;;;;;21.24;62.80;102398.69;10495787;28;20056;-66
2021/09/28 09:33:33;;;;;;;0.00;0.00;;;;;;;20.94;62.87;102402.50;10495261;28;20020;-66
2021/09/28 09:38:52;;;;;;;0.00;0.00;;;;;;;20.66;65.22;102394.25;10494619;28;20150;-66
2021/09/28 09:44:04;;;;;;;0.10;0.10;;;;;;;20.58;63.23;102398.72;10493853;28;20028;-65
2021/09/28 09:49:06;;;;;;;0.00;0.00;;;;;;;20.55;66.34;102392.84;10495611;28;20074;-66
2021/09/28 09:54:07;;;;;;;0.00;0.00;;;;;;;20.62;65.60;102399.19;10493637;28;20557;-67
2021/09/28 09:59:07;;;;;;;0.00;0.00;;;;;;;20.41;66.50;102401.78;10494311;28;20111;-66
2021/09/28 10:04:09;;;;;;;0.00;0.00;;;;;;;20.42;66.69;102403.44;10494119;28;20352;-65
2021/09/28 10:09:19;;;;;;;0.10;0.10;;;;;;;20.43;65.07;102399.72;10493873;28;20032;-65
2021/09/28 10:14:32;;;;;;;0.10;0.10;;;;;;;20.42;64.79;102398.03;10475312;28;20056;-67
2021/09/28 10:19:36;;;;;;;;;;;;;;;20.35;64.89;102393.34;10494061;28;20029;-64
2021/09/28 10:24:37;;;;;;;0.00;0.00;;;;;;;20.24;66.69;102395.69;10507012;22;20015;-67
2021/09/28 10:29:41;;;;;;;0.00;0.00;;;;;;;20.22;65.01;102393.19;10431793;28;20435;-67
2021/09/28 10:35:00;;;;;;;0.10;0.10;;;;;;;20.01;65.60;102390.34;10420328;28;20115;-67
2021/09/28 10:40:01;;;;;;;0.00;0.00;;;;;;;20.01;67.94;102387.63;10467938;28;20017;-67
2021/09/28 10:45:01;;;;;;;0.00;0.00;;;;;;;19.96;66.75;102388.19;10464665;28;20013;-69
2021/09/28 10:50:26;;;;;;;0.00;0.00;;;;;;;19.81;65.94;102385.47;10472358;28;20059;-67
2021/09/28 10:55:39;;;;;;;0.00;0.00;;;;;;;19.74;67.44;102389.06;10449515;28;20021;-67
2021/09/28 11:00:39;;;;;;;0.10;0.10;;;;;;;19.70;66.07;102380.47;10474444;28;20479;-67
2021/09/28 11:05:56;;;;;;;0.00;0.00;;;;;;;19.57;64.35;102375.63;10471089;28;20027;-67
2021/09/28 11:10:58;;;;;;;0.10;0.10;;;;;;;19.43;66.12;102377.28;10468205;28;20397;-67
2021/09/28 11:16:00;;;;;;;0.10;0.10;;;;;;;19.43;65.86;102360.22;10478243;28;20016;-67
2021/09/28 11:21:08;;;;;;;0.10;0.10;;;;;;;19.36;63.86;102360.09;10465962;28;20099;-67
2021/09/28 11:26:09;;;;;;;0.10;0.10;;;;;;;19.32;64.65;102355.25;10464412;28;20044;-67
2021/09/28 11:31:09;;;;;;;0.10;0.10;;;;;;;19.34;63.68;102355.88;10474289;28;20438;-67
2021/09/28 11:36:15;;;;;;;0.10;0.10;;;;;;;19.31;65.37;102354.38;10477869;28;20021;-67
2021/09/28 11:41:18;;;;;;;0.00;0.00;;;;;;;19.23;64.80;102358.00;10471589;28;20085;-68
2021/09/28 11:46:21;;;;;;;0.00;0.00;;;;;;;19.26;66.22;102347.84;10455785;28;20016;-68
2021/09/28 11:51:25;;;;;;;0.10;0.10;;;;;;;19.22;63.94;102344.66;10465901;28;20060;-68
2021/09/28 11:56:28;;;;;;;0.00;0.00;;;;;;;19.20;63.74;102350.25;10467444;28;20157;-69
2021/09/28 12:01:28;;;;;;;0.10;0.10;;;;;;;19.20;65.90;102339.47;10471257;28;20554;-68
2021/09/28 12:06:45;;;;;;;0.10;0.10;;;;;;;18.91;63.95;102340.16;10469951;28;20073;-67
2021/09/28 12:12:03;;;;;;;0.03;0.03;;;;;;;18.39;65.47;102345.25;10480898;28;20082;-67
2021/09/28 12:17:10;;;;;;;0.10;0.10;;;;;;;18.39;65.36;102340.69;10485299;28;20426;-69
2021/09/28 12:22:11;;;;;;;0.00;0.00;;;;;;;18.42;66.55;102353.00;10473795;28;20031;-68
2021/09/28 12:27:12;;;;;;;0.00;0.00;;;;;;;18.53;67.41;102339.97;10454545;28;20024;-68
2021/09/28 12:32:22;;;;;;;0.00;0.00;;;;;;;18.58;66.58;102334.03;10479828;28;20040;-68
2021/09/28 12:37:24;;;;;;;0.00;0.00;;;;;;;18.71;64.64;102336.19;10483944;28;20024;-68
2021/09/28 12:42:25;;;;;;;0.00;0.00;;;;;;;18.82;64.66;102343.91;10481017;28;20521;-68
2021/09/28 12:47:29;;;;;;;0.10;0.10;;;;;;;18.82;61.88;102334.94;10490538;28;20150;-68
2021/09/28 12:52:29;;;;;;;0.10;0.10;;;;;;;18.46;61.59;102333.56;10465075;28;20021;-69
2021/09/28 12:57:29;;;;;;;0.00;0.00;;;;;;;18.07;64.56;102333.53;10477007;28;20436;-68
2021/09/28 13:02:30;;;;;;;0.10;0.10;;;;;;;17.97;65.32;102339.09;10473097;28;20020;-67
2021/09/28 13:07:30;;;;;;;0.00;0.00;;;;;;;18.13;62.35;102326.63;10479127;28;20013;-70
2021/09/28 13:12:30;;;;;;;0.00;0.00;;;;;;;18.19;64.27;102331.31;10467589;28;20354;-69
2021/09/28 13:17:31;;;;;;;0.00;0.00;;;;;;;18.26;65.36;102326.91;10477472;28;20024;-69
2021/09/28 13:22:32;;;;;;;0.00;0.00;;;;;;;18.27;61.48;102336.69;10478468;28;20030;-70
2021/09/28 13:27:32;;;;;;;0.10;0.10;;;;;;;18.42;64.47;102313.38;10469518;28;20038;-69
2021/09/28 13:32:33;;;;;;;0.10;0.10;;;;;;;18.49;62.64;102316.19;10484667;28;20078;-70
2021/09/28 13:37:33;;;;;;;0.00;0.00;;;;;;;18.47;62.47;102319.09;10476594;28;20028;-70
2021/09/28 13:42:34;;;;;;;0.00;0.00;;;;;;;18.50;62.40;102315.16;10482414;28;20051;-69
2021/09/28 13:47:35;;;;;;;0.10;0.10;;;;;;;18.45;61.35;102318.41;10463886;28;20043;-70
2021/09/28 13:52:35;;;;;;;0.00;0.00;;;;;;;18.45;63.32;102310.31;10451122;28;20054;-70
2021/09/28 13:57:37;;;;;;;0.00;0.00;;;;;;;18.37;63.96;102310.34;10460098;28;20025;-69
2021/09/28 14:02:38;;;;;;;0.00;0.00;;;;;;;18.10;66.14;102307.06;10461532;28;20034;-69
2021/09/28 14:07:38;;;;;;;0.10;0.10;;;;;;;17.96;66.33;102307.78;10488723;28;20357;-69
2021/09/28 14:12:40;;;;;;;0.00;0.00;;;;;;;17.93;64.30;102301.88;10479108;28;20071;-69
2021/09/28 14:17:40;;;;;;;0.10;0.10;;;;;;;17.94;63.12;102304.41;10470621;28;20098;-69
2021/09/28 14:22:41;;;;;;;0.00;0.00;;;;;;;17.95;65.07;102300.72;10458071;28;20213;-69
2021/09/28 14:27:41;;;;;;;0.10;0.10;;;;;;;17.87;62.91;102293.47;10454522;28;20052;-69
2021/09/28 14:32:42;;;;;;;0.10;0.10;;;;;;;17.81;64.94;102286.06;10495099;28;20293;-69
2021/09/28 14:37:44;;;;;;;0.00;0.00;;;;;;;17.76;63.53;102276.78;10469190;28;20025;-69
2021/09/28 14:42:44;;;;;;;0.10;0.10;;;;;;;17.68;65.38;102285.72;10453293;28;20102;-69
2021/09/28 14:47:45;;;;;;;0.00;0.00;;;;;;;17.64;62.88;102284.38;10453526;28;20802;-69
2021/09/28 14:52:45;;;;;;;0.00;0.00;;;;;;;17.60;62.70;102281.19;10485229;28;20040;-69
2021/09/28 14:57:46;;;;;;;0.00;0.00;;;;;;;17.55;61.75;102275.47;10494640;28;20476;-69
2021/09/28 15:02:47;;;;;;;0.10;0.10;;;;;;;17.50;63.12;102282.38;10469722;28;20021;-69
2021/09/28 15:07:47;;;;;;;0.03;0.03;;;;;;;17.45;63.28;102276.63;10452375;28;20096;-69
2021/09/28 15:12:47;;;;;;;0.10;0.10;;;;;;;17.37;61.91;102269.44;10452132;28;20040;-69
2021/09/28 15:17:50;;;;;;;0.10;0.10;;;;;;;17.30;62.56;102268.41;10454160;28;20044;-69
2021/09/28 15:22:50;;;;;;;0.00;0.00;;;;;;;17.23;65.19;102262.84;10470282;28;20551;-69
2021/09/28 15:27:50;;;;;;;0.05;0.05;;;;;;;17.11;65.30;102265.03;10451680;28;20025;-69
2021/09/28 15:32:51;;;;;;;0.00;0.00;;;;;;;17.05;67.37;102270.25;10452226;28;20024;-69
2021/09/28 15:37:52;;;;;;;0.00;0.00;;;;;;;16.88;67.17;102259.47;10451886;28;20092;-69
2021/09/28 15:42:52;;;;;;;0.10;0.10;;;;;;;16.69;68.42;102263.25;10470261;28;20025;-69
2021/09/28 15:47:52;;;;;;;0.00;0.00;;;;;;;16.52;69.82;102265.06;10492833;28;20023;-69
2021/09/28 15:52:52;;;;;;;0.00;0.00;;;;;;;16.40;70.87;102255.59;10494376;28;20032;-69
2021/09/28 15:57:53;;;;;;;0.10;0.10;;;;;;;16.30;71.67;102262.97;10494551;28;20535;-69
2021/09/28 16:02:53;;;;;;;0.00;0.00;;;;;;;16.15;71.95;102261.91;10493551;28;20028;-69
2021/09/28 16:07:53;;;;;;;0.03;0.03;;;;;;;16.03;72.97;102258.66;10492265;28;20024;-69
2021/09/28 16:12:54;;;;;;;0.10;0.10;;;;;;;15.93;72.95;102265.97;10493606;28;20488;-69
2021/09/28 16:17:54;;;;;;;0.00;0.00;;;;;;;15.86;73.88;102263.09;10500575;28;20020;-69
2021/09/28 16:22:54;;;;;;;0.00;0.00;;;;;;;15.79;74.14;102259.34;10500834;28;20082;-69
2021/09/28 16:27:55;;;;;;;0.10;0.10;;;;;;;15.65;75.06;102258.06;10488229;28;20283;-69
2021/09/28 16:32:55;;;;;;;0.00;0.00;;;;;;;15.51;75.55;102246.03;10458645;28;20029;-69
2021/09/28 16:37:55;;;;;;;0.10;0.10;;;;;;;15.36;76.57;102252.97;10458174;28;20025;-69
2021/09/28 16:42:56;;;;;;;0.10;0.10;;;;;;;15.17;76.86;102256.66;10458132;28;20033;-69
2021/09/28 16:47:56;;;;;;;0.10;0.10;;;;;;;14.99;78.00;102254.00;10468659;28;20013;-69
2021/09/28 16:52:56;;;;;;;0.00;0.00;;;;;;;14.81;78.34;102247.78;10470895;28;20029;-69
2021/09/28 16:57:57;;;;;;;0.10;0.10;;;;;;;14.67;78.84;102257.19;10473094;28;20079;-68
2021/09/28 17:02:57;;;;;;;0.10;0.10;;;;;;;14.50;79.32;102262.31;10453469;28;20033;-68
2021/09/28 17:07:58;;;;;;;0.10;0.10;;;;;;;14.34;80.28;102254.13;10454532;28;20786;-69
2021/09/28 17:12:58;;;;;;;0.10;0.10;;;;;;;14.21;80.75;102269.69;10456755;28;20501;-68
2021/09/28 17:17:58;;;;;;;0.00;0.00;;;;;;;14.06;81.07;102257.75;10456414;28;20020;-68
2021/09/28 17:22:58;;;;;;;0.10;0.10;;;;;;;13.91;81.91;102257.41;10456000;28;20029;-68
2021/09/28 17:27:59;;;;;;;0.10;0.10;;;;;;;13.79;82.44;102260.25;10455491;28;20273;-69
2021/09/28 17:32:59;;;;;;;0.10;0.10;;;;;;;13.64;83.78;102267.03;10455905;28;20063;-68
2021/09/28 17:38:00;;;;;;;0.10;0.10;;;;;;;13.48;84.85;102270.31;10455138;28;20078;-69
2021/09/28 17:43:00;;;;;;;0.10;0.10;;;;;;;13.38;85.20;102271.31;10455292;28;20049;-68
2021/09/28 17:48:02;;;;;;;0.10;0.10;;;;;;;13.21;86.20;102281.72;10454823;28;20040;-68
2021/09/28 17:53:08;;;;;;;0.00;0.00;;;;;;;13.12;86.89;102272.69;10454596;28;20127;-68
2021/09/28 17:58:09;;;;;;;0.10;0.10;;;;;;;13.04;87.05;102277.91;10454723;28;20021;-68
2021/09/28 18:03:10;;;;;;;0.10;0.10;;;;;;;12.98;87.19;102272.28;10455304;28;20021;-68
2021/09/28 18:08:10;;;;;;;0.10;0.10;;;;;;;12.85;87.59;102277.88;10454094;28;20021;-68
2021/09/28 18:13:10;;;;;;;0.10;0.10;;;;;;;12.72;88.47;102275.47;10454332;28;20114;-68
2021/09/28 18:18:11;;;;;;;0.10;0.10;;;;;;;12.60;88.63;102272.06;10453690;28;20033;-68
2021/09/28 18:23:13;;;;;;;0.10;0.10;;;;;;;12.49;89.36;102269.50;10453316;28;20021;-68
2021/09/28 18:28:14;;;;;;;0.10;0.10;;;;;;;12.35;89.21;102276.06;10453001;28;20039;-68
2021/09/28 18:33:15;;;;;;;0.10;0.10;;;;;;;12.24;89.98;102273.50;10453475;28;20466;-68
2021/09/28 18:38:15;;;;;;;0.10;0.10;;;;;;;12.13;90.41;102268.25;10452393;28;20091;-68
2021/09/28 18:43:22;;;;;;;0.10;0.10;;;;;;;12.05;91.11;102276.94;10452935;28;20029;-68
2021/09/28 18:48:26;;;;;;;0.10;0.10;;;;;;;11.96;91.09;102269.72;10452393;28;20024;-68
2021/09/28 18:53:27;;;;;;;0.20;0.20;;;;;;;11.87;90.90;102279.38;10442665;28;20039;-68
2021/09/28 18:58:42;;;;;;;0.10;0.10;;;;;;;11.67;91.15;102274.88;10451866;28;20536;-68
2021/09/28 19:03:52;;;;;;;0.10;0.10;;;;;;;11.45;92.09;102270.50;10451977;28;20028;-68
2021/09/28 19:08:57;;;;;;;0.10;0.10;;;;;;;11.28;92.54;102271.91;10452304;28;20055;-68
2021/09/28 19:13:58;;;;;;;0.10;0.10;;;;;;;11.15;92.45;102271.25;10451605;28;20024;-68
2021/09/28 19:18:58;;;;;;;0.10;0.10;;;;;;;11.03;91.69;102279.31;10451268;28;20027;-67
2021/09/28 19:23:58;;;;;;;0.10;0.10;;;;;;;10.92;93.49;102270.50;10434492;28;20024;-67
2021/09/28 19:28:59;;;;;;;0.10;0.10;;;;;;;10.83;94.31;102272.94;10492164;28;20036;-67
2021/09/28 19:34:01;;;;;;;0.10;0.10;;;;;;;10.76;95.19;102279.75;10492750;28;20028;-67
2021/09/28 19:39:23;;;;;;;0.10;0.10;;;;;;;10.70;95.49;102274.91;10494154;22;20041;-65
2021/09/28 19:44:26;;;;;;;0.10;0.10;;;;;;;10.62;95.62;102280.88;10451057;28;20025;-65
2021/09/28 19:49:28;;;;;;;0.00;0.00;;;;;;;10.50;95.09;102276.53;10450190;28;20017;-66
2021/09/28 20:36:44;;;;;;;0.10;0.10;;;;;;;9.93;98.58;102241.03;10472154;28;20052;-66
2021/09/28 20:41:45;;;;;;;0.10;0.10;;;;;;;9.94;98.24;102237.41;10477276;28;20500;-67
2021/09/28 20:46:45;;;;;;;0.10;0.10;;;;;;;9.91;98.61;102232.31;10465760;28;20052;-64
2021/09/28 20:51:45;;;;;;;0.10;0.10;;;;;;;9.81;98.66;102231.38;10470748;28;20036;-65
2021/09/28 20:56:46;;;;;;;0.05;0.05;;;;;;;9.80;99.10;102224.31;10473063;28;20289;-65
2021/09/28 21:01:48;;;;;;;0.10;0.10;;;;;;;9.83;99.47;102221.47;10496865;28;20064;-67
2021/09/28 21:06:48;;;;;;;0.10;0.10;;;;;;;9.81;99.47;102217.22;10498261;28;20493;-66
2021/09/28 21:11:48;;;;;;;0.08;0.08;;;;;;;9.80;99.83;102221.66;10459988;28;20390;-66
2021/09/28 21:16:49;;;;;;;0.08;0.08;;;;;;;9.80;100.00;102210.19;10456648;28;20028;-66
2021/09/28 21:21:49;;;;;;;0.10;0.10;;;;;;;9.80;100.00;102208.38;10456508;28;20035;-67
2021/09/28 21:26:49;;;;;;;0.00;0.00;;;;;;;9.79;100.00;102193.38;10456458;28;20035;-67
2021/09/28 21:31:50;;;;;;;0.00;0.00;;;;;;;9.72;99.53;102192.19;10456053;28;20032;-67
2021/09/28 21:36:58;;;;;;;0.10;0.10;;;;;;;9.59;99.28;102194.94;10456086;28;20033;-66
2021/09/28 21:41:59;;;;;;;0.08;0.08;;;;;;;9.58;100.00;102195.06;10455706;28;20095;-67
2021/09/28 21:47:00;;;;;;;0.10;0.10;;;;;;;9.68;100.00;102185.38;10455458;28;20025;-67
2021/09/28 21:52:00;;;;;;;0.10;0.10;;;;;;;9.78;100.00;102182.88;10455336;28;20026;-66
2021/09/28 21:57:00;;;;;;;0.00;0.00;;;;;;;9.80;100.00;102181.75;10455135;28;20025;-66
2021/09/28 22:02:01;;;;;;;0.10;0.10;;;;;;;9.75;100.00;102178.63;10454835;28;20259;-67
2021/09/28 22:07:01;;;;;;;0.10;0.10;;;;;;;9.67;100.00;102165.91;10454788;28;20032;-67
2021/09/28 22:12:01;;;;;;;0.10;0.10;;;;;;;9.63;100.00;102164.47;10453412;28;20424;-66
2021/09/28 22:17:02;;;;;;;0.10;0.10;;;;;;;9.57;100.00;102166.75;10454457;28;20564;-67
2021/09/28 22:22:03;;;;;;;0.00;0.00;;;;;;;9.52;100.00;102162.66;10454273;28;20620;-66
2021/09/28 22:27:03;;;;;;;0.10;0.10;;;;;;;9.48;100.00;102163.00;10453771;28;20111;-66
2021/09/28 22:32:03;;;;;;;0.10;0.10;;;;;;;9.42;99.79;102160.81;10454128;28;20033;-67
2021/09/28 22:37:05;;;;;;;0.10;0.10;;;;;;;9.32;99.24;102157.19;10453574;28;20298;-66
2021/09/28 22:42:07;;;;;;;0.00;0.00;;;;;;;9.13;99.04;102147.09;10453125;28;20705;-66
2021/09/28 22:47:07;;;;;;;0.10;0.10;;;;;;;9.00;99.15;102144.56;10452861;28;20099;-66
2021/09/28 22:52:08;;;;;;;0.00;0.00;;;;;;;8.95;99.67;102154.66;10452647;28;20099;-66
2021/09/28 22:57:08;;;;;;;0.00;0.00;;;;;;;8.89;99.10;102150.66;10452430;28;20070;-66
2021/09/28 23:02:09;;;;;;;0.10;0.10;;;;;;;8.80;99.40;102136.25;10452214;28;20447;-67
2021/09/28 23:07:09;;;;;;;0.00;0.00;;;;;;;8.70;99.62;102137.94;10452259;28;20021;-66
2021/09/28 23:12:10;;;;;;;0.00;0.00;;;;;;;8.67;100.00;102132.84;10452175;28;20025;-66
2021/09/28 23:17:10;;;;;;;0.00;0.00;;;;;;;8.72;100.00;102125.38;10450746;28;20025;-66
2021/09/28 23:22:10;;;;;;;0.03;0.03;;;;;;;8.77;100.00;102117.06;10450469;28;20328;-67
2021/09/28 23:27:10;;;;;;;0.10;0.10;;;;;;;8.76;100.00;102110.06;10451240;28;20366;-66
2021/09/28 23:32:12;;;;;;;0.00;0.00;;;;;;;8.76;100.00;102105.59;10451344;28;20061;-66
2021/09/28 23:37:12;;;;;;;0.10;0.10;;;;;;;8.79;100.00;102101.84;10451970;28;20024;-66
2021/09/28 23:42:13;;;;;;;0.10;0.10;;;;;;;8.76;100.00;102092.31;10450965;28;20397;-64
2021/09/28 23:47:13;;;;;;;0.03;0.03;;;;;;;8.74;100.00;102096.03;10450952;28;20397;-66
2021/09/28 23:52:14;;;;;;;0.00;0.00;;;;;;;8.70;100.00;102097.25;10450979;28;20025;-66